sensor_id;sensor_type;location;lat;lon;timestamp;pressure;altitude;pressure_sealevel;temperature;humidity
51245;BME280;37840;47.562;18.738;2023-01-23T00:00:38;100695.66;;;2.57;92.51
51245;BME280;37840;47.562;18.738;2023-01-23T00:03:04;100697.50;;;2.53;92.61
51245;BME280;37840;47.562;18.738;2023-01-23T00:05:30;100693.06;;;2.55;92.58
51245;BME280;37840;47.562;18.738;2023-01-23T00:07:56;100692.97;;;2.60;92.25
51245;BME280;37840;47.562;18.738;2023-01-23T00:10:22;100683.47;;;2.54;92.33
51245;BME280;37840;47.562;18.738;2023-01-23T00:12:48;100687.13;;;2.47;92.58
51245;BME280;37840;47.562;18.738;2023-01-23T00:15:15;100671.37;;;2.47;92.68
51245;BME280;37840;47.562;18.738;2023-01-23T00:17:41;100669.59;;;2.48;92.53
51245;BME280;37840;47.562;18.738;2023-01-23T00:20:08;100659.97;;;2.48;92.18
51245;BME280;37840;47.562;18.738;2023-01-23T00:22:35;100662.69;;;2.45;92.37
51245;BME280;37840;47.562;18.738;2023-01-23T00:25:01;100667.09;;;2.43;92.53
51245;BME280;37840;47.562;18.738;2023-01-23T00:27:27;100657.44;;;2.43;92.70
51245;BME280;37840;47.562;18.738;2023-01-23T00:29:53;100646.06;;;2.44;92.64
51245;BME280;37840;47.562;18.738;2023-01-23T00:32:19;100657.44;;;2.43;92.40
51245;BME280;37840;47.562;18.738;2023-01-23T00:34:46;100666.25;;;2.41;92.52
51245;BME280;37840;47.562;18.738;2023-01-23T00:37:12;100661.75;;;2.46;92.21
51245;BME280;37840;47.562;18.738;2023-01-23T00:39:38;100662.66;;;2.47;91.96
51245;BME280;37840;47.562;18.738;2023-01-23T00:42:05;100656.50;;;2.46;91.78
51245;BME280;37840;47.562;18.738;2023-01-23T00:44:31;100660.94;;;2.44;91.43
51245;BME280;37840;47.562;18.738;2023-01-23T00:46:57;100656.66;;;2.40;91.38
51245;BME280;37840;47.562;18.738;2023-01-23T00:49:24;100661.97;;;2.37;91.58
51245;BME280;37840;47.562;18.738;2023-01-23T00:51:50;100651.53;;;2.34;91.51
51245;BME280;37840;47.562;18.738;2023-01-23T00:54:17;100648.16;;;2.29;91.66
51245;BME280;37840;47.562;18.738;2023-01-23T00:56:46;100651.75;;;2.24;91.81
51245;BME280;37840;47.562;18.738;2023-01-23T00:59:12;100661.38;;;2.26;91.91
51245;BME280;37840;47.562;18.738;2023-01-23T01:01:38;100656.94;;;2.28;91.72
51245;BME280;37840;47.562;18.738;2023-01-23T01:04:04;100657.00;;;2.24;91.74
51245;BME280;37840;47.562;18.738;2023-01-23T01:09:15;100662.25;;;2.24;91.91
51245;BME280;37840;47.562;18.738;2023-01-23T01:11:41;100657.97;;;2.20;91.78
51245;BME280;37840;47.562;18.738;2023-01-23T01:14:07;100647.56;;;2.17;91.88
51245;BME280;37840;47.562;18.738;2023-01-23T01:16:34;100661.53;;;2.18;92.16
51245;BME280;37840;47.562;18.738;2023-01-23T01:19:00;100658.03;;;2.17;92.06
51245;BME280;37840;47.562;18.738;2023-01-23T01:21:26;100649.22;;;2.20;91.83
51245;BME280;37840;47.562;18.738;2023-01-23T01:23:52;100635.31;;;2.16;92.10
51245;BME280;37840;47.562;18.738;2023-01-23T01:26:18;100619.56;;;2.16;92.37
51245;BME280;37840;47.562;18.738;2023-01-23T01:28:44;100622.28;;;2.13;92.58
51245;BME280;37840;47.562;18.738;2023-01-23T01:31:12;100627.37;;;2.19;92.34
51245;BME280;37840;47.562;18.738;2023-01-23T01:33:39;100636.19;;;2.17;92.43
51245;BME280;37840;47.562;18.738;2023-01-23T01:36:10;100629.19;;;2.17;92.60
51245;BME280;37840;47.562;18.738;2023-01-23T01:38:36;100621.31;;;2.17;92.25
51245;BME280;37840;47.562;18.738;2023-01-23T01:41:03;100623.97;;;2.16;92.60
51245;BME280;37840;47.562;18.738;2023-01-23T01:43:29;100629.22;;;2.16;92.70
51245;BME280;37840;47.562;18.738;2023-01-23T01:48:41;100638.03;;;2.12;93.13
51245;BME280;37840;47.562;18.738;2023-01-23T01:53:48;100640.50;;;2.19;93.39
51245;BME280;37840;47.562;18.738;2023-01-23T01:56:16;100649.16;;;2.23;93.52
51245;BME280;37840;47.562;18.738;2023-01-23T01:58:45;100636.00;;;2.24;93.19
51245;BME280;37840;47.562;18.738;2023-01-23T02:01:12;100636.81;;;2.28;92.92
51245;BME280;37840;47.562;18.738;2023-01-23T02:03:38;100635.03;;;2.29;92.66
51245;BME280;37840;47.562;18.738;2023-01-23T02:06:05;100617.50;;;2.31;92.63
51245;BME280;37840;47.562;18.738;2023-01-23T02:08:44;100623.66;;;2.30;92.77
51245;BME280;37840;47.562;18.738;2023-01-23T02:11:11;100613.94;;;2.33;92.63
51245;BME280;37840;47.562;18.738;2023-01-23T02:13:38;100607.81;;;2.34;92.50
51245;BME280;37840;47.562;18.738;2023-01-23T02:16:25;100605.22;;;2.33;92.50
51245;BME280;37840;47.562;18.738;2023-01-23T02:18:57;100602.59;;;2.31;92.53
51245;BME280;37840;47.562;18.738;2023-01-23T02:21:24;100604.25;;;2.35;92.30
51245;BME280;37840;47.562;18.738;2023-01-23T02:26:30;100606.00;;;2.36;92.64
51245;BME280;37840;47.562;18.738;2023-01-23T02:28:57;100604.06;;;2.44;92.79
51245;BME280;37840;47.562;18.738;2023-01-23T02:31:24;100597.72;;;2.53;93.00
51245;BME280;37840;47.562;18.738;2023-01-23T02:33:53;100593.94;;;2.63;93.03
51245;BME280;37840;47.562;18.738;2023-01-23T02:36:23;100599.97;;;2.69;93.04
51245;BME280;37840;47.562;18.738;2023-01-23T02:39:04;100591.09;;;2.74;93.18
51245;BME280;37840;47.562;18.738;2023-01-23T02:41:39;100589.87;;;2.88;92.79
51245;BME280;37840;47.562;18.738;2023-01-23T02:44:21;100594.16;;;2.90;92.77
51245;BME280;37840;47.562;18.738;2023-01-23T02:46:54;100585.97;;;3.02;92.40
51245;BME280;37840;47.562;18.738;2023-01-23T02:49:21;100581.44;;;3.08;92.18
51245;BME280;37840;47.562;18.738;2023-01-23T02:51:48;100580.50;;;3.10;91.94
51245;BME280;37840;47.562;18.738;2023-01-23T02:54:15;100577.69;;;3.16;91.73
51245;BME280;37840;47.562;18.738;2023-01-23T02:56:41;100584.66;;;3.19;91.83
51245;BME280;37840;47.562;18.738;2023-01-23T02:59:08;100589.81;;;3.22;91.75
51245;BME280;37840;47.562;18.738;2023-01-23T03:01:52;100588.81;;;3.28;91.72
51245;BME280;37840;47.562;18.738;2023-01-23T03:04:18;100583.44;;;3.31;91.49
51245;BME280;37840;47.562;18.738;2023-01-23T03:06:44;100588.72;;;3.31;91.48
51245;BME280;37840;47.562;18.738;2023-01-23T03:09:14;100577.19;;;3.36;91.30
51245;BME280;37840;47.562;18.738;2023-01-23T03:11:42;100567.38;;;3.41;91.05
51245;BME280;37840;47.562;18.738;2023-01-23T03:14:17;100572.59;;;3.43;90.97
51245;BME280;37840;47.562;18.738;2023-01-23T03:16:43;100570.69;;;3.48;90.84
51245;BME280;37840;47.562;18.738;2023-01-23T03:19:14;100574.88;;;3.55;90.45
51245;BME280;37840;47.562;18.738;2023-01-23T03:21:40;100570.47;;;3.56;90.34
51245;BME280;37840;47.562;18.738;2023-01-23T03:24:12;100573.91;;;3.59;90.33
51245;BME280;37840;47.562;18.738;2023-01-23T03:26:41;100579.87;;;3.64;90.24
51245;BME280;37840;47.562;18.738;2023-01-23T03:29:14;100583.31;;;3.66;90.31
51245;BME280;37840;47.562;18.738;2023-01-23T03:31:59;100581.50;;;3.68;90.26
51245;BME280;37840;47.562;18.738;2023-01-23T03:34:25;100582.19;;;3.75;89.94
51245;BME280;37840;47.562;18.738;2023-01-23T03:36:51;100574.28;;;3.75;90.04
51245;BME280;37840;47.562;18.738;2023-01-23T03:39:17;100571.75;;;3.72;90.29
51245;BME280;37840;47.562;18.738;2023-01-23T03:42:01;100569.00;;;3.77;90.28
51245;BME280;37840;47.562;18.738;2023-01-23T03:44:27;100563.72;;;3.77;90.29
51245;BME280;37840;47.562;18.738;2023-01-23T03:46:53;100563.63;;;3.80;90.13
51245;BME280;37840;47.562;18.738;2023-01-23T03:49:19;100557.50;;;3.79;89.98
51245;BME280;37840;47.562;18.738;2023-01-23T03:51:45;100564.44;;;3.82;89.97
51245;BME280;37840;47.562;18.738;2023-01-23T03:54:11;100567.88;;;3.84;90.05
51245;BME280;37840;47.562;18.738;2023-01-23T03:56:40;100565.28;;;3.82;90.07
51245;BME280;37840;47.562;18.738;2023-01-23T03:59:07;100569.69;;;3.82;90.05
51245;BME280;37840;47.562;18.738;2023-01-23T04:01:33;100574.97;;;3.82;89.86
51245;BME280;37840;47.562;18.738;2023-01-23T04:04:00;100568.00;;;3.81;89.61
51245;BME280;37840;47.562;18.738;2023-01-23T04:06:26;100568.81;;;3.83;89.42
51245;BME280;37840;47.562;18.738;2023-01-23T04:08:52;100554.78;;;3.82;89.07
51245;BME280;37840;47.562;18.738;2023-01-23T04:11:18;100565.44;;;3.78;88.88
51245;BME280;37840;47.562;18.738;2023-01-23T04:13:44;100558.47;;;3.77;88.85
51245;BME280;37840;47.562;18.738;2023-01-23T04:16:12;100560.28;;;3.75;88.99
51245;BME280;37840;47.562;18.738;2023-01-23T04:18:38;100563.69;;;3.78;89.19
51245;BME280;37840;47.562;18.738;2023-01-23T04:21:04;100553.09;;;3.80;89.21
51245;BME280;37840;47.562;18.738;2023-01-23T04:23:30;100560.03;;;3.82;89.41
51245;BME280;37840;47.562;18.738;2023-01-23T04:25:56;100557.47;;;3.81;89.55
51245;BME280;37840;47.562;18.738;2023-01-23T04:28:22;100564.44;;;3.82;89.43
51245;BME280;37840;47.562;18.738;2023-01-23T04:30:51;100559.19;;;3.82;89.20
51245;BME280;37840;47.562;18.738;2023-01-23T04:33:18;100565.41;;;3.79;89.14
51245;BME280;37840;47.562;18.738;2023-01-23T04:35:58;100563.63;;;3.80;89.26
51245;BME280;37840;47.562;18.738;2023-01-23T04:38:26;100553.91;;;3.82;89.35
51245;BME280;37840;47.562;18.738;2023-01-23T04:40:53;100547.62;;;3.87;89.57
51245;BME280;37840;47.562;18.738;2023-01-23T04:43:19;100542.09;;;3.95;89.65
51245;BME280;37840;47.562;18.738;2023-01-23T04:45:45;100540.91;;;4.05;89.86
51245;BME280;37840;47.562;18.738;2023-01-23T04:48:14;100541.66;;;4.11;89.90
51245;BME280;37840;47.562;18.738;2023-01-23T04:50:40;100547.53;;;4.19;90.00
51245;BME280;37840;47.562;18.738;2023-01-23T04:53:06;100544.78;;;4.22;90.01
51245;BME280;37840;47.562;18.738;2023-01-23T04:55:32;100546.25;;;4.31;90.06
51245;BME280;37840;47.562;18.738;2023-01-23T04:57:59;100551.44;;;4.34;90.05
51245;BME280;37840;47.562;18.738;2023-01-23T05:00:25;100547.69;;;4.41;89.91
51245;BME280;37840;47.562;18.738;2023-01-23T05:02:54;100558.91;;;4.46;90.02
51245;BME280;37840;47.562;18.738;2023-01-23T05:05:20;100555.22;;;4.52;90.23
51245;BME280;37840;47.562;18.738;2023-01-23T05:07:48;100557.50;;;4.62;90.09
51245;BME280;37840;47.562;18.738;2023-01-23T05:10:14;100563.38;;;4.70;89.80
51245;BME280;37840;47.562;18.738;2023-01-23T05:12:40;100570.31;;;4.73;89.66
51245;BME280;37840;47.562;18.738;2023-01-23T05:15:07;100579.00;;;4.77;89.33
51245;BME280;37840;47.562;18.738;2023-01-23T05:17:33;100581.47;;;4.81;88.92
51245;BME280;37840;47.562;18.738;2023-01-23T05:19:59;100579.75;;;4.80;88.83
51245;BME280;37840;47.562;18.738;2023-01-23T05:22:25;100573.53;;;4.83;88.72
51245;BME280;37840;47.562;18.738;2023-01-23T05:24:51;100578.78;;;4.83;88.50
51245;BME280;37840;47.562;18.738;2023-01-23T05:27:17;100578.72;;;4.84;88.30
51245;BME280;37840;47.562;18.738;2023-01-23T05:29:43;100575.06;;;4.88;87.88
51245;BME280;37840;47.562;18.738;2023-01-23T05:32:09;100578.41;;;4.94;87.62
51245;BME280;37840;47.562;18.738;2023-01-23T05:34:35;100582.59;;;4.99;88.02
51245;BME280;37840;47.562;18.738;2023-01-23T05:37:01;100578.94;;;5.03;88.20
51245;BME280;37840;47.562;18.738;2023-01-23T05:39:30;100584.00;;;5.09;88.23
51245;BME280;37840;47.562;18.738;2023-01-23T05:41:57;100579.44;;;5.15;88.03
51245;BME280;37840;47.562;18.738;2023-01-23T05:44:23;100588.81;;;5.23;87.77
51245;BME280;37840;47.562;18.738;2023-01-23T05:46:49;100581.75;;;5.24;87.78
51245;BME280;37840;47.562;18.738;2023-01-23T05:49:15;100585.87;;;5.31;87.72
51245;BME280;37840;47.562;18.738;2023-01-23T05:55:16;100574.66;;;5.49;87.08
51245;BME280;37840;47.562;18.738;2023-01-23T05:57:42;100584.94;;;5.57;86.65
51245;BME280;37840;47.562;18.738;2023-01-23T06:00:11;100587.25;;;5.66;86.18
51245;BME280;37840;47.562;18.738;2023-01-23T06:02:38;100597.56;;;5.72;85.91
51245;BME280;37840;47.562;18.738;2023-01-23T06:05:04;100591.22;;;5.78;85.72
51245;BME280;37840;47.562;18.738;2023-01-23T06:07:30;100597.28;;;5.80;85.71
51245;BME280;37840;47.562;18.738;2023-01-23T06:09:56;100596.13;;;5.87;85.21
51245;BME280;37840;47.562;18.738;2023-01-23T06:12:22;100592.56;;;5.88;85.01
51245;BME280;37840;47.562;18.738;2023-01-23T06:14:49;100590.53;;;5.97;84.47
51245;BME280;37840;47.562;18.738;2023-01-23T06:17:14;100594.66;;;6.04;83.56
51245;BME280;37840;47.562;18.738;2023-01-23T06:19:40;100596.19;;;6.09;83.08
51245;BME280;37840;47.562;18.738;2023-01-23T06:22:07;100600.75;;;6.06;83.14
51245;BME280;37840;47.562;18.738;2023-01-23T06:24:33;100608.44;;;6.12;82.75
51245;BME280;37840;47.562;18.738;2023-01-23T06:26:59;100612.84;;;6.11;82.71
51245;BME280;37840;47.562;18.738;2023-01-23T06:29:25;100614.50;;;6.14;82.36
51245;BME280;37840;47.562;18.738;2023-01-23T06:31:51;100622.50;;;6.12;82.35
51245;BME280;37840;47.562;18.738;2023-01-23T06:34:24;100622.78;;;6.05;82.74
51245;BME280;37840;47.562;18.738;2023-01-23T06:40:18;100635.78;;;6.09;82.47
51245;BME280;37840;47.562;18.738;2023-01-23T07:00:10;100666.34;;;6.84;80.18
51245;BME280;37840;47.562;18.738;2023-01-23T07:55:20;100674.84;;;10.42;66.23
51245;BME280;37840;47.562;18.738;2023-01-23T07:57:46;100677.41;;;10.59;65.97
51245;BME280;37840;47.562;18.738;2023-01-23T08:03:49;100669.28;;;10.63;65.54
51245;BME280;37840;47.562;18.738;2023-01-23T08:06:15;100677.44;;;10.44;66.26
51245;BME280;37840;47.562;18.738;2023-01-23T08:08:41;100680.87;;;10.28;66.62
51245;BME280;37840;47.562;18.738;2023-01-23T08:24:27;100672.06;;;11.21;65.62
51245;BME280;37840;47.562;18.738;2023-01-23T08:26:53;100674.13;;;11.91;64.00
51245;BME280;37840;47.562;18.738;2023-01-23T08:29:19;100667.63;;;12.38;61.80
51245;BME280;37840;47.562;18.738;2023-01-23T08:35:12;100680.13;;;12.23;61.37
51245;BME280;37840;47.562;18.738;2023-01-23T08:37:38;100684.41;;;11.97;62.33
51245;BME280;37840;47.562;18.738;2023-01-23T08:40:06;100691.69;;;11.65;62.28
51245;BME280;37840;47.562;18.738;2023-01-23T08:42:59;100685.66;;;11.47;63.09
51245;BME280;37840;47.562;18.738;2023-01-23T09:31:04;100707.28;;;9.30;71.87
51245;BME280;37840;47.562;18.738;2023-01-23T09:33:47;100699.09;;;9.34;71.97
51245;BME280;37840;47.562;18.738;2023-01-23T09:39:36;100700.66;;;9.38;71.57
51245;BME280;37840;47.562;18.738;2023-01-23T09:42:38;100703.84;;;9.45;71.43
51245;BME280;37840;47.562;18.738;2023-01-23T09:45:05;100701.75;;;9.52;71.50
51245;BME280;37840;47.562;18.738;2023-01-23T09:50:57;100703.00;;;9.62;71.63
51245;BME280;37840;47.562;18.738;2023-01-23T10:00:06;100704.84;;;10.11;70.70
51245;BME280;37840;47.562;18.738;2023-01-23T10:03:14;100706.91;;;10.39;70.06
51245;BME280;37840;47.562;18.738;2023-01-23T10:32:26;100700.00;;;11.14;68.19
51245;BME280;37840;47.562;18.738;2023-01-23T10:35:02;100698.66;;;11.07;65.79
51245;BME280;37840;47.562;18.738;2023-01-23T10:38:30;100696.84;;;11.08;65.68
51245;BME280;37840;47.562;18.738;2023-01-23T10:40:57;100701.63;;;11.17;66.51
51245;BME280;37840;47.562;18.738;2023-01-23T10:43:48;100709.47;;;11.20;65.01
51245;BME280;37840;47.562;18.738;2023-01-23T10:46:17;100691.84;;;11.17;66.17
51245;BME280;37840;47.562;18.738;2023-01-23T10:48:48;100687.38;;;11.18;65.29
51245;BME280;37840;47.562;18.738;2023-01-23T10:54:44;100679.41;;;11.18;66.60
51245;BME280;37840;47.562;18.738;2023-01-23T10:59:57;100679.56;;;11.15;66.67
51245;BME280;37840;47.562;18.738;2023-01-23T11:02:28;100677.41;;;11.21;65.95
51245;BME280;37840;47.562;18.738;2023-01-23T11:04:54;100682.16;;;11.16;66.07
51245;BME280;37840;47.562;18.738;2023-01-23T11:07:25;100681.66;;;11.10;66.12
51245;BME280;37840;47.562;18.738;2023-01-23T11:13:29;100669.19;;;11.10;66.45
51245;BME280;37840;47.562;18.738;2023-01-23T11:15:55;100673.81;;;11.07;65.80
51245;BME280;37840;47.562;18.738;2023-01-23T11:18:34;100668.06;;;11.14;66.58
51245;BME280;37840;47.562;18.738;2023-01-23T11:21:01;100668.06;;;11.14;66.11
51245;BME280;37840;47.562;18.738;2023-01-23T11:23:28;100661.28;;;11.09;65.37
51245;BME280;37840;47.562;18.738;2023-01-23T11:25:55;100668.50;;;11.07;66.03
51245;BME280;37840;47.562;18.738;2023-01-23T11:28:31;100660.44;;;11.08;66.16
51245;BME280;37840;47.562;18.738;2023-01-23T11:31:19;100655.81;;;11.12;66.11
51245;BME280;37840;47.562;18.738;2023-01-23T11:33:50;100658.09;;;11.18;66.65
51245;BME280;37840;47.562;18.738;2023-01-23T11:38:51;100658.81;;;11.36;64.62
51245;BME280;37840;47.562;18.738;2023-01-23T11:41:19;100653.56;;;11.34;65.19
51245;BME280;37840;47.562;18.738;2023-01-23T11:43:49;100648.34;;;11.33;64.55
51245;BME280;37840;47.562;18.738;2023-01-23T11:46:22;100643.78;;;11.35;64.73
51245;BME280;37840;47.562;18.738;2023-01-23T11:52:05;100641.31;;;11.46;65.52
51245;BME280;37840;47.562;18.738;2023-01-23T12:00:27;100614.81;;;11.59;65.21
51245;BME280;37840;47.562;18.738;2023-01-23T12:25:37;100608.22;;;11.50;64.87
51245;BME280;37840;47.562;18.738;2023-01-23T12:28:23;100609.84;;;11.53;65.10
51245;BME280;37840;47.562;18.738;2023-01-23T12:33:37;100599.87;;;11.56;64.96
51245;BME280;37840;47.562;18.738;2023-01-23T12:43:58;100613.00;;;11.59;64.45
51245;BME280;37840;47.562;18.738;2023-01-23T12:46:43;100615.84;;;11.56;64.57
51245;BME280;37840;47.562;18.738;2023-01-23T12:51:59;100619.44;;;11.55;64.31
51245;BME280;37840;47.562;18.738;2023-01-23T12:54:35;100617.00;;;11.52;64.69
51245;BME280;37840;47.562;18.738;2023-01-23T12:57:04;100623.16;;;11.53;64.29
51245;BME280;37840;47.562;18.738;2023-01-23T12:59:52;100624.59;;;11.44;63.99
51245;BME280;37840;47.562;18.738;2023-01-23T13:05:06;100625.91;;;11.37;64.05
51245;BME280;37840;47.562;18.738;2023-01-23T13:10:37;100625.59;;;11.27;64.84
51245;BME280;37840;47.562;18.738;2023-01-23T13:13:25;100617.97;;;11.21;64.79
51245;BME280;37840;47.562;18.738;2023-01-23T13:16:13;100627.69;;;11.22;64.64
51245;BME280;37840;47.562;18.738;2023-01-23T13:18:39;100627.09;;;11.17;65.86
51245;BME280;37840;47.562;18.738;2023-01-23T13:21:24;100638.94;;;11.11;65.28
51245;BME280;37840;47.562;18.738;2023-01-23T13:29:56;100641.72;;;11.10;65.09
51245;BME280;37840;47.562;18.738;2023-01-23T13:32:27;100640.75;;;11.11;64.06
51245;BME280;37840;47.562;18.738;2023-01-23T13:34:54;100637.25;;;11.10;64.25
51245;BME280;37840;47.562;18.738;2023-01-23T13:42:36;100644.47;;;11.08;64.58
51245;BME280;37840;47.562;18.738;2023-01-23T13:45:21;100646.16;;;11.09;63.92
51245;BME280;37840;47.562;18.738;2023-01-23T13:48:15;100652.44;;;11.08;64.01
51245;BME280;37840;47.562;18.738;2023-01-23T13:51:17;100654.44;;;11.05;64.19
51245;BME280;37840;47.562;18.738;2023-01-23T13:53:46;100655.19;;;11.07;63.73
51245;BME280;37840;47.562;18.738;2023-01-23T13:56:31;100656.25;;;11.04;64.01
51245;BME280;37840;47.562;18.738;2023-01-23T13:59:10;100649.97;;;11.05;64.14
51245;BME280;37840;47.562;18.738;2023-01-23T14:01:46;100668.97;;;10.99;63.75
51245;BME280;37840;47.562;18.738;2023-01-23T14:04:34;100658.22;;;11.00;64.23
51245;BME280;37840;47.562;18.738;2023-01-23T14:07:25;100663.44;;;11.02;63.29
51245;BME280;37840;47.562;18.738;2023-01-23T14:10:30;100666.47;;;10.96;64.85
51245;BME280;37840;47.562;18.738;2023-01-23T14:13:13;100663.81;;;10.96;64.97
51245;BME280;37840;47.562;18.738;2023-01-23T14:15:45;100663.87;;;10.94;64.29
51245;BME280;37840;47.562;18.738;2023-01-23T14:18:49;100664.06;;;10.91;64.98
51245;BME280;37840;47.562;18.738;2023-01-23T14:21:19;100668.47;;;10.92;65.04
51245;BME280;37840;47.562;18.738;2023-01-23T14:23:54;100672.13;;;10.90;65.43
51245;BME280;37840;47.562;18.738;2023-01-23T14:26:48;100669.59;;;10.88;65.40
51245;BME280;37840;47.562;18.738;2023-01-23T14:29:23;100673.09;;;10.89;65.08
51245;BME280;37840;47.562;18.738;2023-01-23T14:31:49;100667.16;;;10.84;64.73
51245;BME280;37840;47.562;18.738;2023-01-23T14:34:18;100669.06;;;10.81;65.54
51245;BME280;37840;47.562;18.738;2023-01-23T14:36:47;100670.28;;;10.76;66.17
51245;BME280;37840;47.562;18.738;2023-01-23T14:39:20;100674.84;;;10.74;66.47
51245;BME280;37840;47.562;18.738;2023-01-23T14:41:46;100671.56;;;10.69;66.65
51245;BME280;37840;47.562;18.738;2023-01-23T14:44:27;100671.66;;;10.67;66.07
51245;BME280;37840;47.562;18.738;2023-01-23T14:46:57;100678.78;;;10.67;65.68
51245;BME280;37840;47.562;18.738;2023-01-23T14:49:28;100673.72;;;10.62;66.16
51245;BME280;37840;47.562;18.738;2023-01-23T14:52:01;100672.00;;;10.61;66.50
51245;BME280;37840;47.562;18.738;2023-01-23T14:54:29;100679.28;;;10.57;67.05
51245;BME280;37840;47.562;18.738;2023-01-23T14:56:56;100677.81;;;10.52;67.21
51245;BME280;37840;47.562;18.738;2023-01-23T14:59:30;100677.81;;;10.52;67.25
51245;BME280;37840;47.562;18.738;2023-01-23T15:02:02;100680.66;;;10.49;67.27
51245;BME280;37840;47.562;18.738;2023-01-23T15:04:29;100680.16;;;10.42;67.31
51245;BME280;37840;47.562;18.738;2023-01-23T15:07:00;100676.66;;;10.42;67.50
51245;BME280;37840;47.562;18.738;2023-01-23T15:09:36;100687.38;;;10.40;67.63
51245;BME280;37840;47.562;18.738;2023-01-23T15:12:15;100683.94;;;10.38;67.73
51245;BME280;37840;47.562;18.738;2023-01-23T15:14:42;100688.53;;;10.34;68.06
51245;BME280;37840;47.562;18.738;2023-01-23T15:17:13;100687.06;;;10.29;68.30
51245;BME280;37840;47.562;18.738;2023-01-23T15:19:42;100689.03;;;10.25;68.54
51245;BME280;37840;47.562;18.738;2023-01-23T15:22:19;100687.66;;;10.18;68.21
51245;BME280;37840;47.562;18.738;2023-01-23T15:24:47;100694.94;;;10.14;68.24
51245;BME280;37840;47.562;18.738;2023-01-23T15:27:32;100687.87;;;10.13;68.43
51245;BME280;37840;47.562;18.738;2023-01-23T15:33:00;100691.22;;;10.01;68.83
51245;BME280;37840;47.562;18.738;2023-01-23T15:35:36;100700.44;;;9.94;68.81
51245;BME280;37840;47.562;18.738;2023-01-23T15:38:03;100699.91;;;9.87;69.02
51245;BME280;37840;47.562;18.738;2023-01-23T15:40:32;100703.59;;;9.85;68.85
51245;BME280;37840;47.562;18.738;2023-01-23T15:43:00;100712.50;;;9.84;68.52
51245;BME280;37840;47.562;18.738;2023-01-23T15:45:31;100719.00;;;9.78;68.13
51245;BME280;37840;47.562;18.738;2023-01-23T15:47:58;100721.91;;;9.73;68.65
51245;BME280;37840;47.562;18.738;2023-01-23T15:50:25;100718.22;;;9.76;69.02
51245;BME280;37840;47.562;18.738;2023-01-23T15:52:53;100716.41;;;9.76;69.28
51245;BME280;37840;47.562;18.738;2023-01-23T15:55:21;100726.34;;;9.73;69.41
51245;BME280;37840;47.562;18.738;2023-01-23T15:57:48;100722.22;;;9.67;69.86
51245;BME280;37840;47.562;18.738;2023-01-23T16:00:18;100720.47;;;9.66;69.84
51245;BME280;37840;47.562;18.738;2023-01-23T16:02:46;100728.63;;;9.63;69.91
51245;BME280;37840;47.562;18.738;2023-01-23T16:05:12;100739.38;;;9.60;70.00
51245;BME280;37840;47.562;18.738;2023-01-23T16:07:41;100743.13;;;9.56;70.57
51245;BME280;37840;47.562;18.738;2023-01-23T16:10:22;100750.41;;;9.52;70.85
51245;BME280;37840;47.562;18.738;2023-01-23T16:12:53;100735.28;;;9.54;70.35
51245;BME280;37840;47.562;18.738;2023-01-23T16:15:38;100739.81;;;9.52;69.64
51245;BME280;37840;47.562;18.738;2023-01-23T16:18:05;100746.88;;;9.52;69.84
51245;BME280;37840;47.562;18.738;2023-01-23T16:20:34;100738.06;;;9.51;69.90
51245;BME280;37840;47.562;18.738;2023-01-23T16:23:21;100742.16;;;9.58;68.94
51245;BME280;37840;47.562;18.738;2023-01-23T16:25:49;100738.53;;;9.59;69.09
51245;BME280;37840;47.562;18.738;2023-01-23T16:28:17;100746.19;;;9.66;68.98
51245;BME280;37840;47.562;18.738;2023-01-23T16:30:43;100752.44;;;9.65;69.55
51245;BME280;37840;47.562;18.738;2023-01-23T16:33:12;100748.06;;;9.64;68.82
51245;BME280;37840;47.562;18.738;2023-01-23T16:35:39;100749.09;;;9.61;69.32
51245;BME280;37840;47.562;18.738;2023-01-23T16:38:05;100750.97;;;9.59;69.90
51245;BME280;37840;47.562;18.738;2023-01-23T16:40:32;100751.09;;;9.56;70.08
51245;BME280;37840;47.562;18.738;2023-01-23T16:42:59;100750.50;;;9.51;70.45
51245;BME280;37840;47.562;18.738;2023-01-23T16:45:30;100750.56;;;9.49;70.59
51245;BME280;37840;47.562;18.738;2023-01-23T16:47:57;100757.72;;;9.47;70.53
51245;BME280;37840;47.562;18.738;2023-01-23T16:50:38;100753.62;;;9.42;70.72
51245;BME280;37840;47.562;18.738;2023-01-23T16:53:14;100765.38;;;9.36;70.95
51245;BME280;37840;47.562;18.738;2023-01-23T16:55:43;100765.56;;;9.33;71.10
51245;BME280;37840;47.562;18.738;2023-01-23T16:58:19;100763.81;;;9.32;71.15
51245;BME280;37840;47.562;18.738;2023-01-23T17:00:46;100768.91;;;9.36;71.06
51245;BME280;37840;47.562;18.738;2023-01-23T17:03:21;100779.50;;;9.36;71.18
51245;BME280;37840;47.562;18.738;2023-01-23T17:05:48;100780.38;;;9.37;70.60
51245;BME280;37840;47.562;18.738;2023-01-23T17:08:24;100785.59;;;9.38;70.49
51245;BME280;37840;47.562;18.738;2023-01-23T17:10:52;100786.47;;;9.39;70.37
51245;BME280;37840;47.562;18.738;2023-01-23T17:13:20;100786.31;;;9.42;70.16
51245;BME280;37840;47.562;18.738;2023-01-23T17:15:47;100792.66;;;9.39;69.37
51245;BME280;37840;47.562;18.738;2023-01-23T17:18:23;100792.72;;;9.38;69.04
51245;BME280;37840;47.562;18.738;2023-01-23T17:20:50;100802.25;;;9.42;69.43
51245;BME280;37840;47.562;18.738;2023-01-23T17:23:20;100801.31;;;9.43;70.01
51245;BME280;37840;47.562;18.738;2023-01-23T17:25:46;100796.00;;;9.43;70.13
51245;BME280;37840;47.562;18.738;2023-01-23T17:28:16;100804.84;;;9.44;70.23
51245;BME280;37840;47.562;18.738;2023-01-23T17:30:44;100816.31;;;9.44;70.21
51245;BME280;37840;47.562;18.738;2023-01-23T17:33:17;100806.63;;;9.43;70.62
51245;BME280;37840;47.562;18.738;2023-01-23T17:35:45;100804.13;;;9.40;70.59